createdAt,value
2023-05-10T00:02:25.578Z,100992.13
2023-05-10T00:04:52.300Z,100994.81
2023-05-10T00:07:18.870Z,100990.59
2023-05-10T00:09:45.302Z,100991.34
2023-05-10T00:12:11.771Z,100994.91
2023-05-10T00:14:38.093Z,100994.06
2023-05-10T00:17:04.515Z,100992.22
2023-05-10T00:19:30.997Z,100990.38
2023-05-10T00:21:57.388Z,100991.25
2023-05-10T00:24:23.765Z,100988.66
2023-05-10T00:26:50.174Z,100983.06
2023-05-10T00:29:16.629Z,100985.00
2023-05-10T00:31:43.014Z,100984.78
2023-05-10T00:34:09.493Z,100989.63
2023-05-10T00:36:35.903Z,100985.09
2023-05-10T00:39:04.113Z,100979.81
2023-05-10T00:41:33.580Z,100986.94
2023-05-10T00:43:59.925Z,100987.69
2023-05-10T00:46:26.936Z,100987.50
2023-05-10T00:48:53.621Z,100985.75
2023-05-10T00:51:20.141Z,100984.91
2023-05-10T00:53:47.086Z,100984.91
2023-05-10T00:56:13.924Z,100990.38
2023-05-10T00:58:40.876Z,100989.41
2023-05-10T01:01:08.650Z,100992.22
2023-05-10T01:03:35.414Z,100991.25
2023-05-10T01:06:01.833Z,100983.25
2023-05-10T01:08:29.868Z,100991.47
2023-05-10T01:10:56.519Z,100991.34
2023-05-10T01:13:37.050Z,100987.78
2023-05-10T01:16:04.314Z,100994.72
2023-05-10T01:18:34.085Z,100994.72
2023-05-10T01:21:12.476Z,100992.88
2023-05-10T01:23:47.677Z,100993.84
2023-05-10T01:26:26.170Z,100990.09
2023-05-10T01:29:17.439Z,100990.19
2023-05-10T01:32:17.257Z,100983.81
2023-05-10T01:35:00.759Z,100986.44
2023-05-10T01:37:39.069Z,100996.75
2023-05-10T01:40:19.576Z,100992.03
2023-05-10T01:43:16.843Z,100989.41
2023-05-10T01:46:05.546Z,100995.69
2023-05-10T01:48:33.217Z,100995.78
2023-05-10T01:50:59.813Z,100992.88
2023-05-10T01:53:27.506Z,100995.47
2023-05-10T01:55:58.446Z,100999.81
2023-05-10T01:58:31.354Z,100989.22
2023-05-10T02:01:01.732Z,100991.25
2023-05-10T02:03:29.472Z,100984.78
2023-05-10T02:05:58.062Z,100991.81
2023-05-10T02:08:25.881Z,100995.47
2023-05-10T02:10:55.498Z,100997.41
2023-05-10T02:13:24.085Z,100996.44
2023-05-10T02:15:52.292Z,100995.56
2023-05-10T02:18:19.321Z,100998.47
2023-05-10T02:20:47.860Z,100999.53
2023-05-10T02:23:17.821Z,100999.66
2023-05-10T02:25:45.615Z,100996.09
2023-05-10T02:28:13.932Z,101007.81
2023-05-10T02:30:41.213Z,101008.00
2023-05-10T02:33:08.464Z,101010.59
2023-05-10T02:35:36.207Z,101017.81
2023-05-10T02:38:03.564Z,101020.53
2023-05-10T02:40:31.324Z,101015.31
2023-05-10T02:43:00.073Z,101022.66
2023-05-10T02:45:30.084Z,101025.53
2023-05-10T02:47:57.330Z,101030.84
2023-05-10T02:50:28.317Z,101018.31
2023-05-10T02:53:00.397Z,101022.94
2023-05-10T02:55:33.248Z,101018.53
2023-05-10T02:58:01.961Z,101024.97
2023-05-10T03:00:28.473Z,101033.06
2023-05-10T03:02:54.957Z,101029.13
2023-05-10T03:05:21.592Z,101037.50
2023-05-10T03:07:48.690Z,101029.00
2023-05-10T03:10:15.436Z,101035.38
2023-05-10T03:12:52.016Z,101039.13
2023-05-10T03:15:53.774Z,101035.66
2023-05-10T03:18:24.369Z,101034.03
2023-05-10T03:20:55.835Z,101029.69
2023-05-10T03:23:31.309Z,101042.97
2023-05-10T03:25:58.803Z,101040.38
2023-05-10T03:28:26.922Z,101046.25
2023-05-10T03:30:55.311Z,101042.69
2023-05-10T03:33:22.035Z,101044.41
2023-05-10T03:35:48.660Z,101051.44
2023-05-10T03:38:15.318Z,101045.94
2023-05-10T03:40:41.713Z,101046.72
2023-05-10T03:43:08.096Z,101048.66
2023-05-10T03:45:34.571Z,101042.41
2023-05-10T03:48:00.994Z,101042.19
2023-05-10T03:50:27.427Z,101044.91
2023-05-10T03:52:54.869Z,101045.75
2023-05-10T03:55:21.453Z,101043.75
2023-05-10T03:57:50.375Z,101053.56
2023-05-10T04:00:17.664Z,101048.47
2023-05-10T04:02:46.073Z,101046.44
2023-05-10T04:05:13.430Z,101046.44
2023-05-10T04:07:39.806Z,101046.44
2023-05-10T04:10:06.717Z,101049.31
2023-05-10T04:12:33.106Z,101045.56
2023-05-10T04:14:59.532Z,101052.59
2023-05-10T04:17:26.110Z,101059.72
2023-05-10T04:19:55.385Z,101047.09
2023-05-10T04:22:21.749Z,101053.25
2023-05-10T04:24:48.175Z,101052.41
2023-05-10T04:27:14.518Z,101053.25
2023-05-10T04:29:41.036Z,101048.63
2023-05-10T04:32:07.483Z,101059.31
2023-05-10T04:34:35.106Z,101053.94
2023-05-10T04:37:01.568Z,101055.88
2023-05-10T04:39:27.953Z,101053.06
2023-05-10T04:41:54.317Z,101060.19
2023-05-10T04:44:20.653Z,101055.97
2023-05-10T04:46:47.197Z,101058.56
2023-05-10T04:49:13.631Z,101062.97
2023-05-10T04:51:39.998Z,101068.28
2023-05-10T04:54:07.008Z,101062.03
2023-05-10T04:56:33.790Z,101070.88
2023-05-10T04:59:00.172Z,101068.03
2023-05-10T05:01:26.648Z,101067.91
2023-05-10T05:03:53.993Z,101066.84
2023-05-10T05:06:22.097Z,101076.97
2023-05-10T05:08:50.406Z,101072.25
2023-05-10T05:11:17.568Z,101079.47
2023-05-10T05:13:53.169Z,101084.97
2023-05-10T05:16:19.618Z,101085.63
2023-05-10T05:18:48.507Z,101083.69
2023-05-10T05:21:19.275Z,101083.69
2023-05-10T05:23:45.800Z,101093.44
2023-05-10T05:26:12.145Z,101089.00
2023-05-10T05:28:38.704Z,101091.50
2023-05-10T05:31:08.979Z,101098.63
2023-05-10T05:33:35.901Z,101102.09
2023-05-10T05:36:03.812Z,101104.69
2023-05-10T05:38:30.376Z,101108.16
2023-05-10T05:40:56.805Z,101100.16
2023-05-10T05:43:23.256Z,101104.69
2023-05-10T05:45:50.283Z,101098.22
2023-05-10T05:48:16.732Z,101108.25
2023-05-10T05:50:43.105Z,101102.00
2023-05-10T05:53:09.951Z,101107.56
2023-05-10T05:55:36.389Z,101111.72
2023-05-10T05:58:02.760Z,101116.03
2023-05-10T06:00:29.460Z,101123.06
2023-05-10T06:02:55.935Z,101123.16
2023-05-10T06:05:22.712Z,101126.16
2023-05-10T06:07:49.081Z,101125.28
2023-05-10T06:10:15.534Z,101134.16
2023-05-10T06:12:41.999Z,101139.53
2023-05-10T06:15:09.089Z,101135.28
2023-05-10T06:17:35.565Z,101141.81
2023-05-10T06:20:02.132Z,101138.19
2023-05-10T06:22:28.509Z,101148.06
2023-05-10T06:24:54.812Z,101144.91
2023-05-10T06:27:21.249Z,101151.94
2023-05-10T06:29:48.315Z,101148.88
2023-05-10T06:32:16.779Z,101145.13
2023-05-10T06:34:44.359Z,101145.78
2023-05-10T06:37:10.707Z,101144.16
2023-05-10T06:39:37.723Z,101135.00
2023-05-10T06:42:05.512Z,101153.88
2023-05-10T06:44:31.929Z,101152.81
2023-05-10T06:46:58.338Z,101145.31
2023-05-10T06:49:24.778Z,101154.16
2023-05-10T06:51:51.144Z,101151.84
2023-05-10T06:54:17.614Z,101156.09
2023-05-10T06:56:44.101Z,101156.91
2023-05-10T06:59:10.688Z,101164.78
2023-05-10T07:01:37.142Z,101163.53
2023-05-10T07:04:03.629Z,101167.50
2023-05-10T07:06:35.757Z,101161.44
2023-05-10T07:09:02.120Z,101165.84
2023-05-10T07:11:28.532Z,101170.72
2023-05-10T07:13:54.954Z,101184.22
2023-05-10T07:16:24.372Z,101177.41
2023-05-10T07:18:51.570Z,101175.88
2023-05-10T07:21:18.174Z,101179.13
2023-05-10T07:23:45.334Z,101180.88
2023-05-10T07:26:12.547Z,101182.88
2023-05-10T07:28:40.050Z,101188.47
2023-05-10T07:31:06.764Z,101194.25
2023-05-10T07:33:33.148Z,101200.91
2023-05-10T07:35:59.564Z,101201.16
2023-05-10T07:38:26.136Z,101206.66
2023-05-10T07:40:52.543Z,101202.34
2023-05-10T07:43:18.979Z,101201.09
2023-05-10T07:45:45.368Z,101209.00
2023-05-10T07:48:12.073Z,101210.63
2023-05-10T07:50:38.384Z,101206.19
2023-05-10T07:53:04.788Z,101213.03
2023-05-10T07:55:31.085Z,101215.44
2023-05-10T07:57:57.700Z,101211.63
2023-05-10T08:00:24.132Z,101211.78
2023-05-10T08:02:50.671Z,101221.72
2023-05-10T08:05:17.377Z,101219.97
2023-05-10T08:07:43.992Z,101226.34
2023-05-10T08:10:14.540Z,101226.63
2023-05-10T08:12:41.110Z,101231.16
2023-05-10T08:15:10.329Z,101232.69
2023-05-10T08:17:36.864Z,101230.75
2023-05-10T08:20:03.553Z,101244.25
2023-05-10T08:22:30.001Z,101235.19
2023-05-10T08:24:56.419Z,101235.91
2023-05-10T08:27:22.829Z,101236.19
2023-05-10T08:29:50.455Z,101234.16
2023-05-10T08:32:17.505Z,101245.34
2023-05-10T08:34:43.994Z,101251.13
2023-05-10T08:37:13.823Z,101249.97
2023-05-10T08:39:40.366Z,101250.75
2023-05-10T08:42:07.720Z,101258.94
2023-05-10T08:44:36.610Z,101259.69
2023-05-10T08:47:06.491Z,101268.56
2023-05-10T08:49:33.946Z,101271.94
2023-05-10T08:52:05.249Z,101270.88
2023-05-10T08:54:35.594Z,101266.44
2023-05-10T08:57:02.340Z,101267.97
2023-05-10T08:59:29.480Z,101277.41
2023-05-10T09:01:58.926Z,101279.69
2023-05-10T09:04:25.947Z,101268.22
2023-05-10T09:06:52.767Z,101271.19
2023-05-10T09:09:20.771Z,101274.09
2023-05-10T09:11:47.575Z,101274.44
2023-05-10T09:14:14.493Z,101274.81
2023-05-10T09:16:41.334Z,101265.84
2023-05-10T09:19:09.548Z,101265.81
2023-05-10T09:21:39.189Z,101273.56
2023-05-10T09:24:07.697Z,101282.50
2023-05-10T09:26:34.522Z,101277.25
2023-05-10T09:29:01.272Z,101277.78
2023-05-10T09:31:51.921Z,101287.19
2023-05-10T09:34:20.044Z,101285.09
2023-05-10T09:36:57.340Z,101282.59
2023-05-10T09:39:37.779Z,101288.13
2023-05-10T09:42:09.548Z,101290.16
2023-05-10T09:44:36.703Z,101295.59
2023-05-10T09:47:03.985Z,101297.41
2023-05-10T09:49:30.921Z,101296.78
2023-05-10T09:52:03.350Z,101295.69
2023-05-10T09:54:29.819Z,101303.69
2023-05-10T09:56:56.381Z,101305.00
2023-05-10T09:59:25.632Z,101312.03
2023-05-10T10:01:52.432Z,101320.59
2023-05-10T10:04:19.050Z,101312.91
2023-05-10T10:06:45.604Z,101312.22
2023-05-10T10:09:12.107Z,101315.13
2023-05-10T10:11:39.723Z,101316.53
2023-05-10T10:14:06.448Z,101314.47
2023-05-10T10:16:33.426Z,101311.34
2023-05-10T10:18:59.973Z,101319.19
2023-05-10T10:21:26.692Z,101320.69
2023-05-10T10:23:54.046Z,101319.63
2023-05-10T10:26:21.970Z,101324.06
2023-05-10T10:29:08.416Z,101325.78
2023-05-10T10:31:42.950Z,101321.13
2023-05-10T10:34:27.494Z,101325.91
2023-05-10T10:36:55.206Z,101329.78
2023-05-10T10:39:21.651Z,101333.78
2023-05-10T10:41:51.944Z,101329.91
2023-05-10T10:44:27.362Z,101326.00
2023-05-10T10:47:10.240Z,101330.88
2023-05-10T10:49:42.764Z,101331.84
2023-05-10T10:52:32.043Z,101332.59
2023-05-10T10:55:02.768Z,101326.53
2023-05-10T10:57:32.022Z,101327.63
2023-05-10T11:00:23.352Z,101328.09
2023-05-10T11:03:15.379Z,101328.09
2023-05-10T11:05:48.652Z,101328.00
2023-05-10T11:08:22.820Z,101332.44
2023-05-10T11:10:54.534Z,101331.09
2023-05-10T11:13:41.581Z,101337.38
2023-05-10T11:16:22.505Z,101339.97
2023-05-10T11:19:07.882Z,101329.56
2023-05-10T11:21:45.244Z,101328.50
2023-05-10T11:24:18.524Z,101330.66
2023-05-10T11:26:45.245Z,101339.25
2023-05-10T11:29:14.077Z,101337.84
2023-05-10T11:31:47.851Z,101331.13
2023-05-10T11:34:25.353Z,101330.94
2023-05-10T11:36:54.790Z,101328.28
2023-05-10T11:39:22.312Z,101328.63
2023-05-10T11:41:50.465Z,101327.19
2023-05-10T11:44:17.064Z,101327.66
2023-05-10T11:46:43.834Z,101325.06
2023-05-10T11:49:11.120Z,101324.69
2023-05-10T11:51:37.774Z,101328.81
2023-05-10T11:54:10.038Z,101324.06
2023-05-10T11:56:37.660Z,101325.53
2023-05-10T11:59:04.686Z,101330.97
2023-05-10T12:01:32.006Z,101334.06
2023-05-10T12:04:01.143Z,101347.88
2023-05-10T12:06:32.179Z,101344.19
2023-05-10T12:08:59.322Z,101351.31
2023-05-10T12:11:28.146Z,101344.63
2023-05-10T12:13:55.777Z,101344.72
2023-05-10T12:16:24.793Z,101341.19
2023-05-10T12:18:52.761Z,101339.13
2023-05-10T12:21:20.938Z,101338.28
2023-05-10T12:23:50.540Z,101342.00
2023-05-10T12:26:17.112Z,101343.09
2023-05-10T12:28:43.651Z,101336.84
2023-05-10T12:31:10.091Z,101329.59
2023-05-10T12:33:44.499Z,101332.00
2023-05-10T12:36:12.850Z,101335.84
2023-05-10T12:38:43.185Z,101329.06
2023-05-10T12:41:12.095Z,101335.78
2023-05-10T12:43:39.657Z,101339.53
2023-05-10T12:46:08.087Z,101325.13
2023-05-10T12:48:35.457Z,101336.47
2023-05-10T12:51:03.350Z,101339.19
2023-05-10T12:53:30.043Z,101338.22
2023-05-10T12:55:57.083Z,101342.03
2023-05-10T12:58:34.978Z,101340.56
2023-05-10T13:01:03.238Z,101336.66
2023-05-10T13:03:29.826Z,101353.06
2023-05-10T13:05:56.171Z,101359.81
2023-05-10T13:08:22.593Z,101355.69
2023-05-10T13:10:49.337Z,101361.03
2023-05-10T13:13:16.667Z,101370.81
2023-05-10T13:15:43.229Z,101372.03
2023-05-10T13:18:09.650Z,101382.47
2023-05-10T13:20:36.087Z,101386.38
2023-05-10T13:23:03.484Z,101389.84
2023-05-10T13:25:29.937Z,101387.28
2023-05-10T13:27:56.429Z,101386.97
2023-05-10T13:30:23.017Z,101401.53
2023-05-10T13:32:49.481Z,101400.59
2023-05-10T13:35:16.421Z,101409.69
2023-05-10T13:37:42.789Z,101410.47
2023-05-10T13:40:09.457Z,101411.44
2023-05-10T13:42:35.804Z,101417.03
2023-05-10T13:45:05.269Z,101427.34
2023-05-10T13:47:31.915Z,101422.13
2023-05-10T13:49:58.709Z,101415.56
2023-05-10T13:52:25.073Z,101417.91
2023-05-10T13:54:53.216Z,101408.94
2023-05-10T13:57:19.576Z,101424.16
2023-05-10T13:59:45.944Z,101410.38
2023-05-10T14:02:13.892Z,101414.31
2023-05-10T14:04:40.443Z,101430.81
2023-05-10T14:07:06.804Z,101425.50
2023-05-10T14:09:33.133Z,101423.41
2023-05-10T14:11:59.702Z,101410.56
2023-05-10T14:14:26.263Z,101411.81
2023-05-10T14:16:52.902Z,101416.25
2023-05-10T14:19:19.409Z,101419.25
2023-05-10T14:21:45.879Z,101428.13
2023-05-10T14:24:12.837Z,101428.59
2023-05-10T14:26:39.217Z,101433.91
2023-05-10T14:29:05.587Z,101428.59
2023-05-10T14:31:32.396Z,101428.31
2023-05-10T14:33:58.772Z,101427.06
2023-05-10T14:36:25.458Z,101421.38
2023-05-10T14:38:52.487Z,101428.72
2023-05-10T14:41:18.878Z,101426.69
2023-05-10T14:43:45.321Z,101427.47
2023-05-10T14:46:12.036Z,101417.91
2023-05-10T14:48:38.469Z,101419.75
2023-05-10T14:51:04.841Z,101418.94
2023-05-10T14:53:31.267Z,101419.63
2023-05-10T14:55:58.301Z,101413.53
2023-05-10T14:58:24.743Z,101416.06
2023-05-10T15:00:51.295Z,101416.34
2023-05-10T15:03:18.237Z,101422.69
2023-05-10T15:05:45.060Z,101423.66
2023-05-10T15:08:13.469Z,101419.56
2023-05-10T15:10:40.503Z,101429.94
2023-05-10T15:13:07.077Z,101423.91
2023-05-10T15:15:33.584Z,101422.25
2023-05-10T15:18:00.138Z,101417.16
2023-05-10T15:20:26.756Z,101419.41
2023-05-10T15:22:53.131Z,101419.97
2023-05-10T15:25:20.944Z,101416.19
2023-05-10T15:27:47.331Z,101412.41
2023-05-10T15:30:13.894Z,101415.88
2023-05-10T15:32:40.980Z,101418.97
2023-05-10T15:35:09.390Z,101417.88
2023-05-10T15:37:35.833Z,101415.78
2023-05-10T15:40:04.862Z,101423.03
2023-05-10T15:42:32.577Z,101420.81
2023-05-10T15:44:59.375Z,101422.75
2023-05-10T15:47:27.088Z,101428.59
2023-05-10T15:49:53.517Z,101427.63
2023-05-10T15:52:21.547Z,101428.19
2023-05-10T15:54:47.874Z,101427.41
2023-05-10T15:57:14.213Z,101427.41
2023-05-10T15:59:40.649Z,101429.69
2023-05-10T16:02:08.723Z,101439.78
2023-05-10T16:04:35.126Z,101433.47
2023-05-10T16:07:01.483Z,101435.31
2023-05-10T16:09:28.000Z,101438.41
2023-05-10T16:11:54.548Z,101442.59
2023-05-10T16:14:24.666Z,101444.31
2023-05-10T16:16:51.537Z,101449.81
2023-05-10T16:19:18.517Z,101451.97
2023-05-10T16:21:45.059Z,101454.47
2023-05-10T16:24:12.067Z,101451.66
2023-05-10T16:26:41.008Z,101450.59
2023-05-10T16:29:08.954Z,101452.44
2023-05-10T16:31:35.466Z,101454.06
2023-05-10T16:34:02.059Z,101461.09
2023-05-10T16:36:29.527Z,101455.28
2023-05-10T16:38:56.101Z,101454.00
2023-05-10T16:41:22.654Z,101456.19
2023-05-10T16:43:49.286Z,101451.56
2023-05-10T16:46:16.078Z,101455.59
2023-05-10T16:48:42.681Z,101453.78
2023-05-10T16:51:09.424Z,101447.72
2023-05-10T16:53:36.274Z,101462.13
2023-05-10T16:56:03.531Z,101454.56
2023-05-10T16:58:29.961Z,101457.59
2023-05-10T17:00:56.440Z,101466.16
2023-05-10T17:03:23.421Z,101457.91
2023-05-10T17:05:50.072Z,101461.19
2023-05-10T17:08:16.533Z,101459.81
2023-05-10T17:10:43.094Z,101460.13
2023-05-10T17:13:10.535Z,101456.44
2023-05-10T17:15:38.447Z,101457.75
2023-05-10T17:18:05.434Z,101463.38
2023-05-10T17:20:31.970Z,101464.38
2023-05-10T17:22:58.498Z,101469.50
2023-05-10T17:25:24.853Z,101477.09
2023-05-10T17:27:51.648Z,101472.88
2023-05-10T17:30:22.476Z,101482.28
2023-05-10T17:32:48.869Z,101475.69
2023-05-10T17:35:15.498Z,101486.78
2023-05-10T17:37:42.108Z,101486.66
2023-05-10T17:40:10.067Z,101490.66
2023-05-10T17:42:38.969Z,101489.25
2023-05-10T17:45:05.861Z,101494.66
2023-05-10T17:47:32.479Z,101495.75
2023-05-10T17:49:58.949Z,101494.00
2023-05-10T17:52:25.698Z,101502.31
2023-05-10T17:54:53.267Z,101501.19
2023-05-10T17:57:20.765Z,101510.38
2023-05-10T17:59:47.503Z,101506.91
2023-05-10T18:02:13.986Z,101507.22
2023-05-10T18:04:41.131Z,101505.59
2023-05-10T18:07:08.571Z,101512.16
2023-05-10T18:09:35.344Z,101513.72
2023-05-10T18:12:02.917Z,101500.00
2023-05-10T18:14:39.912Z,101512.84
2023-05-10T18:17:07.530Z,101504.63
2023-05-10T18:19:34.157Z,101512.19
2023-05-10T18:22:00.562Z,101516.72
2023-05-10T18:24:40.176Z,101517.03
2023-05-10T18:27:08.725Z,101512.59
2023-05-10T18:29:36.095Z,101516.66
2023-05-10T18:32:02.530Z,101516.75
2023-05-10T18:34:28.939Z,101514.06
2023-05-10T18:36:55.799Z,101513.34
2023-05-10T18:39:22.176Z,101517.50
2023-05-10T18:41:50.110Z,101513.25
2023-05-10T18:44:16.495Z,101504.47
2023-05-10T18:46:42.918Z,101522.81
2023-05-10T18:49:09.555Z,101518.84
2023-05-10T18:51:35.998Z,101526.00
2023-05-10T18:54:02.411Z,101529.09
2023-05-10T18:56:28.803Z,101533.16
2023-05-10T18:58:55.220Z,101520.41
2023-05-10T19:01:21.937Z,101526.97
2023-05-10T19:03:48.345Z,101531.53
2023-05-10T19:06:14.822Z,101537.19
2023-05-10T19:08:41.221Z,101532.84
2023-05-10T19:11:07.637Z,101537.38
2023-05-10T19:13:34.261Z,101533.91
2023-05-10T19:16:12.476Z,101538.53
2023-05-10T19:18:39.812Z,101542.97
2023-05-10T19:21:07.588Z,101546.75
2023-05-10T19:23:34.830Z,101548.59
2023-05-10T19:26:01.534Z,101549.53
2023-05-10T19:28:28.223Z,101545.97
2023-05-10T19:30:54.608Z,101544.22
2023-05-10T19:33:28.349Z,101550.81
2023-05-10T19:35:55.393Z,101561.59
2023-05-10T19:38:22.833Z,101560.75
2023-05-10T19:40:50.634Z,101560.75
2023-05-10T19:43:17.134Z,101566.16
2023-05-10T19:45:44.000Z,101571.56
2023-05-10T19:48:11.064Z,101561.91
2023-05-10T19:50:38.349Z,101572.81
2023-05-10T19:53:04.857Z,101571.16
2023-05-10T19:55:32.135Z,101566.97
2023-05-10T19:58:00.597Z,101567.06
2023-05-10T20:00:29.924Z,101570.13
2023-05-10T20:02:56.453Z,101574.00
2023-05-10T20:05:23.320Z,101576.69
2023-05-10T20:07:50.329Z,101579.41
2023-05-10T20:10:17.601Z,101582.38
2023-05-10T20:12:52.801Z,101574.38
2023-05-10T20:15:21.795Z,101578.03
2023-05-10T20:17:49.489Z,101580.91
2023-05-10T20:20:16.651Z,101583.53
2023-05-10T20:22:45.473Z,101579.34
2023-05-10T20:25:12.312Z,101582.84
2023-05-10T20:27:38.967Z,101587.09
2023-05-10T20:30:06.242Z,101583.34
2023-05-10T20:32:32.999Z,101586.13
2023-05-10T20:34:59.636Z,101593.19
2023-05-10T20:37:27.514Z,101588.38
2023-05-10T20:39:54.672Z,101586.63
2023-05-10T20:42:22.112Z,101592.03
2023-05-10T20:44:48.674Z,101596.56
2023-05-10T20:47:15.783Z,101592.03
2023-05-10T20:49:42.773Z,101596.38
2023-05-10T20:52:09.481Z,101590.19
2023-05-10T20:54:35.915Z,101592.13
2023-05-10T20:57:02.363Z,101594.22
2023-05-10T20:59:29.287Z,101594.81
2023-05-10T21:01:57.400Z,101602.06
2023-05-10T21:04:25.462Z,101593.19
2023-05-10T21:06:52.947Z,101592.22
2023-05-10T21:09:19.462Z,101591.81
2023-05-10T21:11:45.873Z,101590.06
2023-05-10T21:14:12.309Z,101590.16
2023-05-10T21:16:38.944Z,101583.91
2023-05-10T21:19:07.074Z,101586.69
2023-05-10T21:21:33.775Z,101594.84
2023-05-10T21:24:00.188Z,101594.69
2023-05-10T21:26:26.604Z,101597.03
2023-05-10T21:28:53.222Z,101594.16
2023-05-10T21:31:19.636Z,101591.28
2023-05-10T21:33:46.042Z,101582.56
2023-05-10T21:36:12.482Z,101578.22
2023-05-10T21:38:39.368Z,101576.59
2023-05-10T21:41:08.542Z,101580.25
2023-05-10T21:43:35.003Z,101580.69
2023-05-10T21:46:01.533Z,101579.84
2023-05-10T21:48:28.381Z,101576.44
2023-05-10T21:50:55.057Z,101576.63
2023-05-10T21:53:22.222Z,101581.06
2023-05-10T21:55:48.607Z,101580.19
2023-05-10T21:58:14.957Z,101581.25
2023-05-10T22:00:41.334Z,101580.38
2023-05-10T22:03:07.868Z,101583.06
2023-05-10T22:05:34.371Z,101585.78
2023-05-10T22:08:00.930Z,101585.88
2023-05-10T22:10:27.401Z,101591.66
2023-05-10T22:12:53.856Z,101596.09
2023-05-10T22:15:20.264Z,101599.31
2023-05-10T22:17:46.688Z,101601.16
2023-05-10T22:20:13.247Z,101606.38
2023-05-10T22:22:39.662Z,101612.81
2023-05-10T22:25:07.346Z,101604.91
2023-05-10T22:27:34.237Z,101604.97
2023-05-10T22:30:00.827Z,101598.53
2023-05-10T22:32:27.185Z,101597.66
2023-05-10T22:34:53.600Z,101601.31
2023-05-10T22:37:20.030Z,101604.81
2023-05-10T22:39:46.750Z,101602.19
2023-05-10T22:42:13.176Z,101597.50
2023-05-10T22:44:39.641Z,101602.78
2023-05-10T22:47:06.749Z,101604.44
2023-05-10T22:49:33.679Z,101607.69
2023-05-10T22:52:00.570Z,101606.53
2023-05-10T22:54:27.820Z,101599.16
2023-05-10T22:56:54.434Z,101608.81
2023-05-10T22:59:21.028Z,101602.63
2023-05-10T23:01:48.860Z,101603.81
2023-05-10T23:04:15.781Z,101602.16
2023-05-10T23:06:42.265Z,101603.91
2023-05-10T23:09:08.955Z,101604.88
2023-05-10T23:11:35.323Z,101608.53
2023-05-10T23:14:01.709Z,101610.34
2023-05-10T23:16:28.117Z,101612.09
2023-05-10T23:18:54.770Z,101618.44
2023-05-10T23:21:21.470Z,101610.78
2023-05-10T23:23:47.974Z,101620.53
2023-05-10T23:26:14.432Z,101614.63
2023-05-10T23:28:40.960Z,101624.44
2023-05-10T23:31:07.307Z,101616.09
2023-05-10T23:33:33.813Z,101619.56
2023-05-10T23:36:00.397Z,101624.97
2023-05-10T23:38:26.944Z,101625.31
2023-05-10T23:40:53.420Z,101618.88
2023-05-10T23:43:20.706Z,101618.78
2023-05-10T23:45:57.684Z,101622.34
2023-05-10T23:48:24.392Z,101618.78
2023-05-10T23:50:50.927Z,101608.78
2023-05-10T23:53:17.435Z,101619.50
2023-05-10T23:55:44.370Z,101622.34
2023-05-10T23:58:11.632Z,101614.19
